Waterloo, NY

3:44 AM EST on January 27, 2015 (GMT -0500)
E Elisha St | Change Station
CLOSE
Current Station
Personal Weather Station
Location: Waterloo, NY
Elevation: 463 ft
Nearby Weather Stations

Elev 463 ft 42.91 °N, 76.86 °W | Updated 42 seconds ago

Overcast
Overcast
14.5 °F
Feels Like 14 °F
N
1.0
Wind Variable Wind from North
Gusts 2.0 mph

Today
High -- | Low -- °F
--% Chance of Precip.
Yesterday
High -- | Low -- °F
Precip. -- in
7:27 AM 5:13 PM
First Quarter, 52% visible
Pressure 29.87 in
Visibility 9.0 miles
Clouds Mostly Cloudy 2200 ft
Overcast 5000 ft
Windchill 14 °F
Dew Point 11 °F
Humidity 87%
Rainfall 0.00 in
Snow Depth Not available.
UV 0 out of 12
Pollen .10 out of 12
Air Quality Not available.
Flu Activity Not available.
SPECI KPEO 270808Z AUTO 00000KT 9SM BKN022 OVC050 M09/M12 A2987 RMK AO2 SNE08 P0000 T10941117

More Conditions Fewer Conditions

Pressure 29.87 in
Visibility 9.0 miles
Clouds Mostly Cloudy 2200 ft
Overcast 5000 ft
Windchill 14 °F
Dew Point 11 °F
Humidity 87%
Rainfall 0.00 in
Snow Depth Not available.
UV 0 out of 12
Pollen .10 out of 12
Air Quality Not available.
Flu Activity Not available.
SPECI KPEO 270808Z AUTO 00000KT 9SM BKN022 OVC050 M09/M12 A2987 RMK AO2 SNE08 P0000 T10941117

More Conditions Fewer Conditions

Nowcast | as of 1:11 am EST on January 27, 2015

Occasional snow will taper off to flurries between 3 and 7 am. Most areas will see additional accumulations between 1 and 7 am of less than 2 inches. Roads will remain snow covered and slippery.

×

10-Day Weather Forecast

Almanac

Astronomy

Jan. 27, 2015 Rise Set
Actual Time
Civil Twilight
Nautical Twilight
Astronomical Twilight
Moon
Length of Visible Light
Length of Day
Tomorrow will be .
, % of the Moon is Illuminated

Today's Extremes

State Highs State Lows

Community

WunderPhotos

Upload Photos

1,790,555 photos uploaded!

WunderBlogs® & News

Nearby

Air Quality

  Air Quality AQ Index Pollutant
Not available.

Snow Depth

Station Depth Elevation

Earthquake Activity

City Distance Mag. Time & Date
Minimum magnitude displayed is 2.5.

Coastal Water Temperatures

Place Temperature

Nearby Weather Stations